createdAt,value
2019-01-28T00:00:21.648Z,96672.92
2019-01-28T00:06:26.335Z,96676.47
2019-01-28T00:12:30.883Z,96679.63
2019-01-28T00:18:35.519Z,96696.48
2019-01-28T00:24:41.963Z,96685.92
2019-01-28T00:30:46.682Z,96685.41
2019-01-28T00:36:52.049Z,96692.67
2019-01-28T00:42:56.852Z,96692.50
2019-01-28T00:49:01.640Z,96713.80
2019-01-28T00:55:10.723Z,96715.31
2019-01-28T01:01:15.589Z,96714.20
2019-01-28T01:07:21.388Z,96726.89
2019-01-28T01:13:25.947Z,96726.23
2019-01-28T01:19:30.716Z,96722.34
2019-01-28T01:25:35.461Z,96719.40
2019-01-28T01:31:40.282Z,96729.02
2019-01-28T01:37:44.897Z,96730.33
2019-01-28T01:43:49.446Z,96741.52
2019-01-28T01:49:53.997Z,96732.57
2019-01-28T01:55:58.614Z,96729.84
2019-01-28T02:02:03.276Z,96728.63
2019-01-28T02:08:07.971Z,96718.80
2019-01-28T02:14:13.487Z,96713.53
2019-01-28T02:20:18.341Z,96712.02
2019-01-28T02:26:22.985Z,96707.78
2019-01-28T02:32:27.591Z,96704.27
2019-01-28T02:38:32.907Z,96705.20
2019-01-28T02:44:37.636Z,96708.61
2019-01-28T02:50:42.493Z,96710.64
2019-01-28T02:56:47.189Z,96701.16
2019-01-28T03:02:51.845Z,96698.81
2019-01-28T03:08:56.553Z,96710.97
2019-01-28T03:15:01.084Z,96710.83
2019-01-28T03:21:05.907Z,96709.94
2019-01-28T03:27:10.602Z,96711.59
2019-01-28T03:33:15.543Z,96708.19
2019-01-28T03:39:20.325Z,96711.74
2019-01-28T03:45:25.011Z,96692.88
2019-01-28T03:51:29.626Z,96693.99
2019-01-28T03:57:34.292Z,96689.02
2019-01-28T04:03:38.907Z,96691.28
2019-01-28T04:09:43.978Z,96682.02
2019-01-28T04:15:48.644Z,96669.57
2019-01-28T04:21:53.279Z,96657.73
2019-01-28T04:27:57.829Z,96647.50
2019-01-28T04:34:02.374Z,96640.73
2019-01-28T04:40:13.979Z,96644.12
2019-01-28T04:46:18.693Z,96621.28
2019-01-28T04:52:23.610Z,96622.52
2019-01-28T04:58:28.487Z,96618.17
2019-01-28T05:04:33.392Z,96613.60
2019-01-28T05:10:38.223Z,96597.41
2019-01-28T05:16:43.383Z,96605.08
2019-01-28T05:22:48.113Z,96585.45
2019-01-28T05:28:52.730Z,96587.28
2019-01-28T05:34:57.294Z,96587.36
2019-01-28T05:41:01.930Z,96570.05
2019-01-28T05:47:06.544Z,96562.52
2019-01-28T05:53:12.585Z,96564.30
2019-01-28T05:59:17.274Z,96566.20
2019-01-28T06:05:22.090Z,96566.50
2019-01-28T06:11:26.910Z,96565.63
2019-01-28T06:17:38.669Z,96574.12
2019-01-28T06:23:38.191Z,96578.81
2019-01-28T06:29:43.497Z,96584.99
2019-01-28T06:35:48.111Z,96597.42
2019-01-28T06:41:52.817Z,96596.48
2019-01-28T06:47:59.716Z,96604.28
2019-01-28T06:54:04.331Z,96606.41
2019-01-28T07:00:16.376Z,96612.05
2019-01-28T07:06:21.142Z,96615.22
2019-01-28T07:12:26.026Z,96624.95
2019-01-28T07:18:30.837Z,96625.61
2019-01-28T07:24:35.391Z,96634.28
2019-01-28T07:30:41.053Z,96630.68
2019-01-28T07:36:45.740Z,96631.42
2019-01-28T07:42:50.346Z,96631.77
2019-01-28T07:48:55.272Z,96634.50
2019-01-28T07:54:59.874Z,96641.70
2019-01-28T08:01:04.615Z,96639.21
2019-01-28T08:07:10.144Z,96643.48
2019-01-28T08:13:15.007Z,96640.23
2019-01-28T08:19:19.929Z,96641.52
2019-01-28T08:25:24.726Z,96642.37
2019-01-28T08:31:29.486Z,96642.16
2019-01-28T08:37:34.013Z,96646.33
2019-01-28T08:43:38.599Z,96653.38
2019-01-28T08:49:43.762Z,96649.49
2019-01-28T08:55:48.593Z,96649.58
2019-01-28T09:01:53.785Z,96650.48
2019-01-28T09:07:58.671Z,96645.34
2019-01-28T09:14:03.269Z,96638.99
2019-01-28T09:20:23.899Z,96637.58
2019-01-28T09:26:30.356Z,96632.14
2019-01-28T09:32:35.152Z,96640.04
2019-01-28T09:38:40.185Z,96646.94
2019-01-28T09:44:45.003Z,96645.09
2019-01-28T09:50:49.762Z,96639.36
2019-01-28T09:56:54.737Z,96634.87
2019-01-28T10:02:59.902Z,96650.81
2019-01-28T10:09:10.157Z,96660.98
2019-01-28T10:15:21.814Z,96662.20
2019-01-28T10:21:26.462Z,96659.66
2019-01-28T10:27:31.099Z,96655.98
2019-01-28T10:33:35.741Z,96652.67
2019-01-28T10:39:41.103Z,96657.26
2019-01-28T10:45:47.664Z,96651.95
2019-01-28T10:51:52.609Z,96659.96
2019-01-28T10:57:57.890Z,96655.98
2019-01-28T11:04:02.596Z,96657.41
2019-01-28T11:10:11.933Z,96656.73
2019-01-28T11:16:16.791Z,96657.31
2019-01-28T11:22:22.055Z,96653.72
2019-01-28T11:28:28.381Z,96655.98
2019-01-28T11:34:33.070Z,96654.36
2019-01-28T11:40:37.868Z,96652.28
2019-01-28T11:46:43.028Z,96658.91
2019-01-28T11:52:47.704Z,96665.45
2019-01-28T11:58:52.256Z,96657.31
2019-01-28T12:04:56.818Z,96670.37
2019-01-28T12:11:01.425Z,96675.22
2019-01-28T12:17:06.433Z,96676.01
2019-01-28T12:23:11.253Z,96685.19
2019-01-28T12:29:16.077Z,96680.04
2019-01-28T12:35:20.898Z,96685.36
2019-01-28T12:41:25.656Z,96686.11
2019-01-28T12:47:30.365Z,96690.77
2019-01-28T12:53:35.281Z,96700.25
2019-01-28T12:59:40.233Z,96701.31
2019-01-28T13:05:45.031Z,96708.70
2019-01-28T13:11:49.561Z,96711.09
2019-01-28T13:17:57.498Z,96723.48
2019-01-28T13:24:02.061Z,96726.98
2019-01-28T13:30:11.453Z,96735.00
2019-01-28T13:36:16.312Z,96742.98
2019-01-28T13:42:20.923Z,96744.98
2019-01-28T13:48:25.480Z,96757.59
2019-01-28T13:54:30.103Z,96761.32
2019-01-28T14:00:35.175Z,96767.95
2019-01-28T14:06:42.155Z,96775.40
2019-01-28T14:12:46.844Z,96790.20
2019-01-28T14:18:52.425Z,96797.19
2019-01-28T14:24:57.034Z,96806.31
2019-01-28T14:31:01.656Z,96826.06
2019-01-28T14:37:06.510Z,96844.61
2019-01-28T14:43:12.202Z,96852.71
2019-01-28T14:49:17.190Z,96860.05
2019-01-28T14:55:24.402Z,96877.89
2019-01-28T15:01:29.285Z,96882.94
2019-01-28T15:07:34.170Z,96887.04
2019-01-28T15:13:38.858Z,96906.63
2019-01-28T15:19:50.600Z,96913.03
2019-01-28T15:25:50.240Z,96929.44
2019-01-28T15:31:54.779Z,96934.89
2019-01-28T15:37:59.389Z,96942.35
2019-01-28T15:44:04.103Z,96957.31
2019-01-28T15:50:13.480Z,96979.95
2019-01-28T15:56:18.095Z,96990.34
2019-01-28T16:02:22.728Z,97000.83
2019-01-28T16:08:27.359Z,97012.31
2019-01-28T16:14:32.074Z,97024.72
2019-01-28T16:20:36.841Z,97040.69
2019-01-28T16:26:41.498Z,97052.77
2019-01-28T16:32:46.373Z,97065.09
2019-01-28T16:45:01.401Z,97080.84
2019-01-28T16:51:07.298Z,97087.76
2019-01-28T16:57:12.268Z,97103.82
2019-01-28T17:03:17.056Z,97108.41
2019-01-28T17:09:21.599Z,97115.31
2019-01-28T17:15:26.446Z,97124.47
2019-01-28T17:21:31.001Z,97143.33
2019-01-28T17:27:36.557Z,97139.23
2019-01-28T17:33:41.575Z,97158.16
2019-01-28T17:39:46.309Z,97175.36
2019-01-28T17:45:51.311Z,97191.00
2019-01-28T17:51:55.863Z,97201.36
2019-01-28T17:58:00.427Z,97218.00
2019-01-28T18:04:05.276Z,97225.55
2019-01-28T18:10:14.091Z,97244.00
2019-01-28T18:16:19.104Z,97256.20
2019-01-28T18:22:24.078Z,97285.33
2019-01-28T18:28:28.968Z,97292.80
2019-01-28T18:34:33.718Z,97306.95
2019-01-28T18:40:38.382Z,97316.20
2019-01-28T18:46:43.425Z,97325.99
2019-01-28T18:52:48.855Z,97336.56
2019-01-28T18:58:53.493Z,97352.86
2019-01-28T19:04:58.402Z,97384.98
2019-01-28T19:11:04.750Z,97395.53
2019-01-28T19:17:13.609Z,97414.12
2019-01-28T19:23:18.254Z,97428.53
2019-01-28T19:29:24.166Z,97448.03
2019-01-28T19:35:28.966Z,97456.60
2019-01-28T19:41:33.717Z,97472.74
2019-01-28T19:47:38.300Z,97491.20
2019-01-28T19:53:43.320Z,97508.68
2019-01-28T19:59:48.830Z,97507.34
2019-01-28T20:05:53.590Z,97517.15
2019-01-28T20:11:58.478Z,97527.76
2019-01-28T20:18:03.350Z,97549.52
2019-01-28T20:24:08.042Z,97556.55
2019-01-28T20:30:28.018Z,97553.22
2019-01-28T20:36:32.659Z,97575.08
2019-01-28T20:42:37.496Z,97587.50
2019-01-28T20:48:42.408Z,97596.23
2019-01-28T20:54:47.091Z,97612.27
2019-01-28T21:00:51.707Z,97619.67
2019-01-28T21:06:56.532Z,97646.09
2019-01-28T21:13:01.208Z,97663.05
2019-01-28T21:19:06.056Z,97675.90
2019-01-28T21:25:20.900Z,97681.59
2019-01-28T21:31:25.473Z,97700.00
2019-01-28T21:37:30.658Z,97708.16
2019-01-28T21:43:35.344Z,97709.92
2019-01-28T21:49:40.475Z,97717.59
2019-01-28T21:55:45.569Z,97725.50
2019-01-28T22:01:53.559Z,97727.30
2019-01-28T22:07:58.274Z,97735.72
2019-01-28T22:14:03.274Z,97735.89
2019-01-28T22:20:10.667Z,97741.33
2019-01-28T22:26:16.455Z,97761.20
2019-01-28T22:32:24.455Z,97776.69
2019-01-28T22:38:29.069Z,97778.66
2019-01-28T22:44:33.640Z,97776.11
2019-01-28T22:50:38.459Z,97789.18
2019-01-28T22:56:43.141Z,97803.19
2019-01-28T23:02:47.823Z,97816.62
2019-01-28T23:08:52.433Z,97822.33
2019-01-28T23:14:57.067Z,97830.03
2019-01-28T23:21:01.734Z,97837.73
2019-01-28T23:27:06.427Z,97843.09
2019-01-28T23:33:11.376Z,97859.27
2019-01-28T23:39:16.166Z,97866.06
2019-01-28T23:45:20.716Z,97877.92
2019-01-28T23:51:25.386Z,97884.11
2019-01-28T23:57:30.041Z,97889.63
